Time;durP1;ratioP1;P1;durP2;ratioP2;P2;SDS_P1;SDS_P2;PMS_P1;PMS_P2;Temp;Humidity;BMP_temperature;BMP_pressure;BME280_temperature;BME280_humidity;BME280_pressure;Samples;Min_cycle;Max_cycle;Signal;HPM_P1;HPM_P2
2022/09/09 00:02:38;;;;;;;73.60;66.10;;;;;;;;;;10151251;28;20039;-68
2022/09/09 00:07:55;;;;;;;76.70;68.47;;;;;;;;;;10149705;28;20038;-66
2022/09/09 00:13:10;;;;;;;78.63;70.55;;;;;;;;;;10143098;28;20378;-66
2022/09/09 00:18:24;;;;;;;83.03;72.80;;;;;;;;;;10152755;28;20504;-67
2022/09/09 00:23:25;;;;;;;83.65;74.50;;;;;;;;;;10151265;28;20053;-67
2022/09/09 00:28:26;;;;;;;78.97;70.53;;;;;;;;;;10147584;28;20049;-67
2022/09/09 00:33:23;;;;;;;80.00;71.27;;;;;;;;;;10143856;28;20157;-68
2022/09/09 00:38:38;;;;;;;81.85;70.57;;;;;;;;;;10147832;28;20532;-66
2022/09/09 00:43:40;;;;;;;83.47;74.38;;;;;;;;;;10145809;28;20687;-67
2022/09/09 00:48:42;;;;;;;80.47;71.78;;;;;;;;;;10139590;28;20428;-67
2022/09/09 00:53:57;;;;;;;79.60;71.18;;;;;;;;;;10149106;28;20043;-67
2022/09/09 00:59:16;;;;;;;78.85;70.72;;;;;;;;;;10149593;28;20045;-66
2022/09/09 01:04:16;;;;;;;74.63;67.15;;;;;;;;;;10146751;28;20046;-67
2022/09/09 01:09:31;;;;;;;76.20;68.45;;;;;;;;;;10150548;28;20057;-66
2022/09/09 01:14:33;;;;;;;72.10;65.15;;;;;;;;;;10141112;28;20047;-67
2022/09/09 01:19:45;;;;;;;75.13;67.93;;;;;;;;;;10149090;28;20049;-67
2022/09/09 01:24:50;;;;;;;79.35;71.30;;;;;;;;;;10144881;28;20050;-67
2022/09/09 01:29:46;;;;;;;70.47;63.88;;;;;;;;;;10152154;28;22137;-67
2022/09/09 01:34:43;;;;;;;74.22;67.22;;;;;;;;;;10145772;28;20049;-67
2022/09/09 01:39:41;;;;;;;70.72;64.00;;;;;;;;;;10147184;28;20061;-67
2022/09/09 01:44:37;;;;;;;72.65;65.78;;;;;;;;;;10147680;28;20053;-67
2022/09/09 01:49:34;;;;;;;71.95;65.35;;;;;;;;;;10147653;28;20504;-67
2022/09/09 01:54:32;;;;;;;74.03;67.22;;;;;;;;;;10150553;28;20043;-67
2022/09/09 01:59:44;;;;;;;75.13;67.95;;;;;;;;;;10145664;28;20056;-67
2022/09/09 02:04:42;;;;;;;75.28;68.25;;;;;;;;;;10144346;28;20054;-67
2022/09/09 02:09:40;;;;;;;76.68;69.78;;;;;;;;;;10148293;28;20054;-66
2022/09/09 02:14:40;;;;;;;75.13;68.43;;;;;;;;;;10141226;28;20046;-66
2022/09/09 02:19:38;;;;;;;76.93;69.80;;;;;;;;;;10143080;28;20061;-67
2022/09/09 02:24:37;;;;;;;74.00;67.35;;;;;;;;;;10149511;28;20427;-68
2022/09/09 02:29:35;;;;;;;76.32;69.30;;;;;;;;;;10148876;28;20432;-67
2022/09/09 02:34:34;;;;;;;79.28;71.80;;;;;;;;;;10130825;28;20515;-67
2022/09/09 02:39:30;;;;;;;79.60;72.40;;;;;;;;;;10148414;28;20053;-67
2022/09/09 02:44:26;;;;;;;77.22;70.28;;;;;;;;;;10148060;28;20077;-67
2022/09/09 02:49:43;;;;;;;75.93;69.20;;;;;;;;;;10149097;28;20054;-67
2022/09/09 02:54:39;;;;;;;73.57;66.55;;;;;;;;;;10147540;28;20050;-67
2022/09/09 02:59:36;;;;;;;76.03;69.35;;;;;;;;;;10137835;28;20519;-68
2022/09/09 03:04:32;;;;;;;77.32;70.43;;;;;;;;;;10139002;28;20543;-67
2022/09/09 03:09:28;;;;;;;74.05;67.38;;;;;;;;;;10144301;28;20054;-67
2022/09/09 03:14:25;;;;;;;77.13;70.40;;;;;;;;;;10143714;28;20448;-68
2022/09/09 03:19:21;;;;;;;70.32;63.90;;;;;;;;;;10148308;28;20051;-68
2022/09/09 03:24:17;;;;;;;71.53;65.22;;;;;;;;;;10147002;28;20387;-67
2022/09/09 03:29:14;;;;;;;74.75;68.35;;;;;;;;;;10149057;28;20127;-68
2022/09/09 03:34:10;;;;;;;73.22;66.93;;;;;;;;;;10146180;28;20058;-67
2022/09/09 03:39:07;;;;;;;75.90;69.22;;;;;;;;;;10143145;28;20042;-68
2022/09/09 03:44:03;;;;;;;73.28;67.13;;;;;;;;;;10142851;28;20424;-67
2022/09/09 03:48:59;;;;;;;73.22;67.00;;;;;;;;;;10145711;28;20046;-68
2022/09/09 03:53:57;;;;;;;73.78;67.47;;;;;;;;;;10147675;28;20049;-68
2022/09/09 03:58:54;;;;;;;69.53;63.47;;;;;;;;;;10140951;28;20062;-68
2022/09/09 04:03:50;;;;;;;76.25;69.80;;;;;;;;;;10148932;28;20054;-68
2022/09/09 04:08:48;;;;;;;74.93;68.53;;;;;;;;;;10143650;28;20065;-69
2022/09/09 04:13:45;;;;;;;73.75;67.65;;;;;;;;;;10143393;28;20063;-67
2022/09/09 04:18:41;;;;;;;71.72;65.70;;;;;;;;;;10144952;28;20053;-68
2022/09/09 04:23:38;;;;;;;74.43;67.93;;;;;;;;;;10139323;28;20043;-67
2022/09/09 04:28:36;;;;;;;73.63;67.82;;;;;;;;;;10136875;28;20050;-68
2022/09/09 04:33:32;;;;;;;73.35;67.25;;;;;;;;;;10137600;28;20055;-68
2022/09/09 04:38:35;;;;;;;68.63;62.83;;;;;;;;;;10130621;28;20050;-68
2022/09/09 04:43:32;;;;;;;74.65;68.50;;;;;;;;;;10137123;28;20039;-68
2022/09/09 04:48:28;;;;;;;76.53;70.32;;;;;;;;;;10131097;28;20051;-67
2022/09/09 04:53:25;;;;;;;79.65;73.10;;;;;;;;;;10134855;28;20070;-66
2022/09/09 04:58:22;;;;;;;83.03;76.53;;;;;;;;;;10143878;28;20050;-67
2022/09/09 05:03:19;;;;;;;82.63;75.90;;;;;;;;;;10146075;28;20050;-67
2022/09/09 05:08:15;;;;;;;76.28;70.13;;;;;;;;;;10140188;28;20035;-67
2022/09/09 05:13:11;;;;;;;77.45;71.25;;;;;;;;;;10140624;28;20058;-68
2022/09/09 05:18:07;;;;;;;77.00;70.88;;;;;;;;;;10140340;28;20043;-69
2022/09/09 05:23:04;;;;;;;74.97;69.00;;;;;;;;;;10133470;28;20112;-69
2022/09/09 05:28:00;;;;;;;78.22;72.13;;;;;;;;;;10133950;28;20038;-68
2022/09/09 05:32:57;;;;;;;75.20;69.05;;;;;;;;;;10132993;28;20487;-67
2022/09/09 05:37:53;;;;;;;73.90;67.95;;;;;;;;;;10134092;28;20049;-67
2022/09/09 05:42:50;;;;;;;75.60;69.60;;;;;;;;;;10143267;28;20065;-70
2022/09/09 05:47:51;;;;;;;73.45;67.60;;;;;;;;;;10139266;28;20043;-70
2022/09/09 05:52:49;;;;;;;72.95;67.03;;;;;;;;;;10136145;28;20063;-70
2022/09/09 05:57:49;;;;;;;73.90;67.78;;;;;;;;;;10133649;28;20042;-70
2022/09/09 06:02:50;;;;;;;69.70;64.25;;;;;;;;;;10124310;28;20047;-70
2022/09/09 06:07:47;;;;;;;77.53;71.53;;;;;;;;;;10131726;28;20047;-69
2022/09/09 06:12:43;;;;;;;74.20;68.30;;;;;;;;;;10138101;28;20050;-69
2022/09/09 06:17:41;;;;;;;73.75;68.25;;;;;;;;;;10140321;28;20052;-69
2022/09/09 06:22:39;;;;;;;71.22;65.50;;;;;;;;;;10134482;28;20053;-69
2022/09/09 06:27:35;;;;;;;66.75;61.45;;;;;;;;;;10126256;28;20053;-72
2022/09/09 06:32:34;;;;;;;67.38;62.03;;;;;;;;;;10135283;28;20624;-72
2022/09/09 06:37:30;;;;;;;64.40;59.25;;;;;;;;;;10125442;28;20069;-69
2022/09/09 06:42:27;;;;;;;64.25;59.08;;;;;;;;;;10124011;28;20509;-70
2022/09/09 06:47:24;;;;;;;60.67;55.88;;;;;;;;;;10124196;28;20059;-69
2022/09/09 06:52:21;;;;;;;59.05;54.25;;;;;;;;;;10128636;28;20065;-69
2022/09/09 06:57:17;;;;;;;82.82;76.28;;;;;;;;;;10134572;28;20588;-70
2022/09/09 07:02:38;;;;;;;73.57;67.68;;;;;;;;;;10134586;28;20133;-71
2022/09/09 07:07:34;;;;;;;77.93;71.70;;;;;;;;;;10122988;28;20428;-70
2022/09/09 07:12:31;;;;;;;80.45;73.75;;;;;;;;;;10126838;28;20139;-69
2022/09/09 07:17:28;;;;;;;76.70;70.50;;;;;;;;;;10126989;28;20505;-70
2022/09/09 07:22:27;;;;;;;78.03;71.97;;;;;;;;;;10128684;28;20061;-70
2022/09/09 07:27:23;;;;;;;86.57;79.78;;;;;;;;;;10138669;28;20046;-70
2022/09/09 07:32:20;;;;;;;78.78;72.60;;;;;;;;;;10140130;28;20050;-70
2022/09/09 07:37:17;;;;;;;81.22;74.88;;;;;;;;;;10128332;28;20047;-69
2022/09/09 07:42:14;;;;;;;81.75;75.35;;;;;;;;;;10134590;28;20054;-69
2022/09/09 07:47:11;;;;;;;78.85;72.97;;;;;;;;;;10138203;28;20416;-69
2022/09/09 07:52:07;;;;;;;87.28;80.55;;;;;;;;;;10142170;28;20048;-69
2022/09/09 07:57:04;;;;;;;88.55;82.03;;;;;;;;;;10142260;28;20137;-69
2022/09/09 08:02:00;;;;;;;89.78;83.15;;;;;;;;;;10142813;28;20050;-69
2022/09/09 08:06:58;;;;;;;85.50;79.07;;;;;;;;;;10128797;28;20039;-70
2022/09/09 08:11:56;;;;;;;92.40;85.60;;;;;;;;;;10139282;28;20071;-70
2022/09/09 08:16:56;;;;;;;99.97;92.90;;;;;;;;;;10130219;28;20404;-69
2022/09/09 08:21:52;;;;;;;98.93;92.38;;;;;;;;;;10135112;28;20053;-71
2022/09/09 08:26:49;;;;;;;91.30;85.22;;;;;;;;;;10138258;28;20404;-72
2022/09/09 08:31:48;;;;;;;89.88;83.50;;;;;;;;;;10137178;28;20047;-70
2022/09/09 08:36:45;;;;;;;90.63;84.07;;;;;;;;;;10133603;28;20049;-68
2022/09/09 08:41:58;;;;;;;84.28;78.30;;;;;;;;;;10136908;28;20050;-69
2022/09/09 08:47:02;;;;;;;88.70;82.63;;;;;;;;;;10138885;28;20056;-69
2022/09/09 08:51:58;;;;;;;95.00;88.63;;;;;;;;;;10123035;28;20046;-69
2022/09/09 08:56:56;;;;;;;85.95;80.13;;;;;;;;;;10131861;28;20043;-71
2022/09/09 09:02:11;;;;;;;94.00;87.85;;;;;;;;;;10136135;28;20046;-71
2022/09/09 09:07:31;;;;;;;93.65;87.47;;;;;;;;;;10146726;28;20397;-71
2022/09/09 09:12:30;;;;;;;91.22;85.07;;;;;;;;;;10146908;28;20050;-70
2022/09/09 09:17:31;;;;;;;110.43;103.57;;;;;;;;;;10146731;28;20061;-71
2022/09/09 09:22:32;;;;;;;89.13;83.93;;;;;;;;;;10151433;28;20047;-71
2022/09/09 09:28:07;;;;;;;76.00;71.33;;;;;;;;;;10150838;28;20054;-70
2022/09/09 09:33:22;;;;;;;67.82;63.90;;;;;;;;;;10139958;28;20043;-70
2022/09/09 09:38:22;;;;;;;63.65;59.55;;;;;;;;;;10131863;28;20046;-71
2022/09/09 09:43:40;;;;;;;59.05;55.60;;;;;;;;;;10130492;28;20038;-70
2022/09/09 09:48:36;;;;;;;28.65;26.90;;;;;;;;;;10122180;28;20050;-70
2022/09/09 09:53:34;;;;;;;28.63;26.83;;;;;;;;;;10130743;28;20133;-70
2022/09/09 09:58:33;;;;;;;23.77;22.08;;;;;;;;;;10129139;28;20053;-71
2022/09/09 10:03:37;;;;;;;27.88;26.10;;;;;;;;;;10134370;28;20121;-71
2022/09/09 10:08:43;;;;;;;30.83;28.92;;;;;;;;;;10135560;28;20129;-71
2022/09/09 10:13:58;;;;;;;28.85;27.13;;;;;;;;;;10135637;28;20526;-71
2022/09/09 10:18:57;;;;;;;19.63;18.33;;;;;;;;;;10135021;28;20047;-70
2022/09/09 10:23:59;;;;;;;15.43;14.23;;;;;;;;;;10137813;28;20078;-70
2022/09/09 10:29:19;;;;;;;17.20;16.10;;;;;;;;;;10149402;28;20054;-70
2022/09/09 10:34:35;;;;;;;15.60;14.40;;;;;;;;;;10165855;28;20058;-71
2022/09/09 10:39:35;;;;;;;13.90;12.77;;;;;;;;;;10150358;28;20129;-71
2022/09/09 10:45:11;;;;;;;19.67;17.90;;;;;;;;;;10151152;28;20456;-71
2022/09/09 10:50:18;;;;;;;13.60;12.65;;;;;;;;;;10171459;28;20170;-70
2022/09/09 10:55:19;;;;;;;12.85;11.88;;;;;;;;;;10135518;28;20046;-70
2022/09/09 11:00:17;;;;;;;12.15;11.15;;;;;;;;;;10113089;28;20046;-70
2022/09/09 11:05:17;;;;;;;13.25;12.32;;;;;;;;;;10130872;28;20054;-70
2022/09/09 11:10:18;;;;;;;14.68;13.68;;;;;;;;;;10152786;28;20064;-70
2022/09/09 11:15:23;;;;;;;15.43;14.30;;;;;;;;;;10160415;28;20420;-70
2022/09/09 11:20:19;;;;;;;15.30;14.40;;;;;;;;;;10160572;28;20046;-70
2022/09/09 11:25:16;;;;;;;15.50;14.30;;;;;;;;;;10160734;28;20062;-70
2022/09/09 11:30:12;;;;;;;30.02;28.17;;;;;;;;;;10159872;28;20050;-70
2022/09/09 11:35:27;;;;;;;15.90;14.60;;;;;;;;;;10159215;28;20050;-70
2022/09/09 11:40:25;;;;;;;15.20;14.18;;;;;;;;;;10160223;28;20444;-68
2022/09/09 11:45:24;;;;;;;15.18;14.07;;;;;;;;;;10148497;28;20673;-67
2022/09/09 11:50:20;;;;;;;15.05;14.02;;;;;;;;;;10159624;28;20043;-68
2022/09/09 11:55:26;;;;;;;15.32;14.15;;;;;;;;;;10138686;28;20046;-69
2022/09/09 12:00:38;;;;;;;15.98;14.85;;;;;;;;;;10159810;28;20046;-68
2022/09/09 12:05:39;;;;;;;14.80;13.80;;;;;;;;;;10158330;28;20473;-68
2022/09/09 12:10:38;;;;;;;14.60;13.50;;;;;;;;;;10159771;28;20046;-68
2022/09/09 12:15:34;;;;;;;15.60;14.48;;;;;;;;;;10159095;28;20042;-69
2022/09/09 12:20:37;;;;;;;15.20;14.10;;;;;;;;;;10158856;28;20043;-68
2022/09/09 12:25:52;;;;;;;16.90;15.65;;;;;;;;;;10158765;28;20046;-68
2022/09/09 12:30:54;;;;;;;19.65;18.25;;;;;;;;;;10158216;28;20042;-69
2022/09/09 12:35:57;;;;;;;25.23;23.65;;;;;;;;;;10157694;28;20402;-68
2022/09/09 12:40:55;;;;;;;31.85;29.95;;;;;;;;;;10158402;28;20053;-68
2022/09/09 12:45:57;;;;;;;64.20;60.53;;;;;;;;;;10157676;28;20050;-68
2022/09/09 12:50:56;;;;;;;53.05;50.13;;;;;;;;;;10158723;28;20109;-68
2022/09/09 12:55:55;;;;;;;16.92;15.73;;;;;;;;;;10139882;28;20413;-68
2022/09/09 13:00:52;;;;;;;22.60;21.23;;;;;;;;;;10118443;28;20417;-68
2022/09/09 13:05:49;;;;;;;19.27;18.08;;;;;;;;;;10140131;28;20046;-68
2022/09/09 13:11:03;;;;;;;23.40;21.90;;;;;;;;;;10157329;28;20050;-68
2022/09/09 13:16:00;;;;;;;28.08;26.15;;;;;;;;;;10155523;28;20038;-68
2022/09/09 13:20:57;;;;;;;29.27;27.13;;;;;;;;;;10156827;28;20567;-68
2022/09/09 13:25:55;;;;;;;27.63;25.92;;;;;;;;;;10156493;28;20117;-68
2022/09/09 13:31:01;;;;;;;29.67;27.77;;;;;;;;;;10156109;28;20050;-68
2022/09/09 13:35:59;;;;;;;32.53;30.27;;;;;;;;;;10155681;28;20526;-68
2022/09/09 13:41:02;;;;;;;36.15;33.58;;;;;;;;;;10155853;28;20412;-68
2022/09/09 13:45:59;;;;;;;85.75;80.88;;;;;;;;;;10152794;28;20485;-68
2022/09/09 13:50:57;;;;;;;96.03;90.15;;;;;;;;;;10116505;28;20501;-68
2022/09/09 13:55:53;;;;;;;87.70;82.20;;;;;;;;;;10118901;28;20038;-68
2022/09/09 14:00:49;;;;;;;88.57;82.80;;;;;;;;;;10146362;28;20038;-68
2022/09/09 14:05:46;;;;;;;88.95;83.15;;;;;;;;;;10154230;28;20038;-68
2022/09/09 14:10:42;;;;;;;88.57;82.47;;;;;;;;;;10154033;28;20416;-68
2022/09/09 14:15:38;;;;;;;85.22;78.97;;;;;;;;;;10144042;28;20390;-68
2022/09/09 14:20:35;;;;;;;90.40;84.00;;;;;;;;;;10115376;28;20053;-68
2022/09/09 14:25:31;;;;;;;81.32;75.22;;;;;;;;;;10124526;28;20047;-68
2022/09/09 14:30:27;;;;;;;87.22;80.65;;;;;;;;;;10114521;28;20048;-68
2022/09/09 14:35:24;;;;;;;89.30;82.75;;;;;;;;;;10120766;28;20053;-68
2022/09/09 14:40:20;;;;;;;93.80;87.10;;;;;;;;;;10115246;28;20417;-69
2022/09/09 14:45:16;;;;;;;102.00;95.30;;;;;;;;;;10136699;28;20047;-68
2022/09/09 14:50:13;;;;;;;96.60;90.20;;;;;;;;;;10152624;28;20507;-68
2022/09/09 14:55:11;;;;;;;100.50;93.72;;;;;;;;;;10130905;28;20050;-68
2022/09/09 15:00:08;;;;;;;93.47;87.07;;;;;;;;;;10153061;28;20053;-68
2022/09/09 15:05:05;;;;;;;89.47;82.97;;;;;;;;;;10153147;28;20562;-68
2022/09/09 15:10:01;;;;;;;84.47;77.97;;;;;;;;;;10153142;28;20046;-69
2022/09/09 15:14:57;;;;;;;81.78;75.68;;;;;;;;;;10153934;28;20057;-68
2022/09/09 15:19:54;;;;;;;78.93;73.03;;;;;;;;;;10152610;28;20051;-68
2022/09/09 15:24:51;;;;;;;80.05;74.10;;;;;;;;;;10153200;28;20505;-69
2022/09/09 15:29:47;;;;;;;92.90;85.95;;;;;;;;;;10151617;28;20054;-68
2022/09/09 15:34:43;;;;;;;109.07;100.55;;;;;;;;;;10152213;28;20038;-68
2022/09/09 15:39:40;;;;;;;97.95;90.45;;;;;;;;;;10152443;28;20051;-68
2022/09/09 15:44:42;;;;;;;107.55;99.43;;;;;;;;;;10152016;28;20086;-68
2022/09/09 15:49:38;;;;;;;107.20;99.30;;;;;;;;;;10151505;28;20058;-68
2022/09/09 15:54:36;;;;;;;110.55;102.55;;;;;;;;;;10123726;28;20053;-68
2022/09/09 15:59:33;;;;;;;122.45;114.15;;;;;;;;;;10157568;28;20050;-68
2022/09/09 16:04:31;;;;;;;124.38;115.85;;;;;;;;;;10159717;28;20050;-68
2022/09/09 16:09:27;;;;;;;130.27;121.63;;;;;;;;;;10129455;28;20085;-68
2022/09/09 16:14:25;;;;;;;139.32;130.27;;;;;;;;;;10144123;28;20512;-68
2022/09/09 16:19:22;;;;;;;132.25;123.28;;;;;;;;;;10119531;28;20042;-68
2022/09/09 16:24:19;;;;;;;126.25;117.80;;;;;;;;;;10128566;28;20050;-68
2022/09/09 16:29:17;;;;;;;127.53;118.72;;;;;;;;;;10158699;28;20046;-68
2022/09/09 16:34:14;;;;;;;129.48;120.80;;;;;;;;;;10147209;28;20527;-68
2022/09/09 16:39:11;;;;;;;124.43;116.22;;;;;;;;;;10158619;28;20053;-69
2022/09/09 16:44:09;;;;;;;127.53;118.82;;;;;;;;;;10158020;28;20042;-70
2022/09/09 16:49:07;;;;;;;117.43;109.80;;;;;;;;;;10158231;28;20133;-68
2022/09/09 16:54:06;;;;;;;110.63;103.30;;;;;;;;;;10126935;28;20420;-68
2022/09/09 16:59:03;;;;;;;120.82;112.72;;;;;;;;;;10145590;28;20420;-68
2022/09/09 17:04:00;;;;;;;118.22;109.85;;;;;;;;;;10125339;28;20045;-68
2022/09/09 17:08:58;;;;;;;115.90;108.00;;;;;;;;;;10156262;28;20061;-68
2022/09/09 17:13:54;;;;;;;122.72;114.50;;;;;;;;;;10157648;28;20046;-67
2022/09/09 17:18:51;;;;;;;117.22;109.07;;;;;;;;;;10156439;28;20073;-67
2022/09/09 17:23:48;;;;;;;115.22;107.30;;;;;;;;;;10156534;28;20066;-67
2022/09/09 17:28:45;;;;;;;115.50;107.47;;;;;;;;;;10155474;28;20064;-67
2022/09/09 17:33:42;;;;;;;117.95;110.00;;;;;;;;;;10155886;28;20125;-67
2022/09/09 17:38:39;;;;;;;114.70;106.90;;;;;;;;;;10155863;28;20054;-67
2022/09/09 17:43:36;;;;;;;119.47;111.55;;;;;;;;;;10124839;28;20053;-67
2022/09/09 17:48:33;;;;;;;111.85;104.32;;;;;;;;;;10154920;28;20050;-67
2022/09/09 17:53:31;;;;;;;113.18;105.45;;;;;;;;;;10155696;28;20046;-68
2022/09/09 17:58:27;;;;;;;119.88;111.88;;;;;;;;;;10136982;28;20053;-68
2022/09/09 18:03:24;;;;;;;94.97;88.53;;;;;;;;;;10118375;28;20066;-69
2022/09/09 18:08:20;;;;;;;95.25;89.00;;;;;;;;;;10118270;28;20049;-69
2022/09/09 18:13:17;;;;;;;87.25;81.25;;;;;;;;;;10116819;28;20051;-68
2022/09/09 18:18:13;;;;;;;89.38;83.07;;;;;;;;;;10154110;28;20038;-67
2022/09/09 18:23:09;;;;;;;94.10;87.57;;;;;;;;;;10145903;28;20042;-69
2022/09/09 18:28:06;;;;;;;99.50;92.45;;;;;;;;;;10154273;28;20456;-69
2022/09/09 18:33:02;;;;;;;95.43;88.80;;;;;;;;;;10130542;28;20524;-67
2022/09/09 18:37:59;;;;;;;92.03;85.53;;;;;;;;;;10114516;28;20069;-67
2022/09/09 18:42:55;;;;;;;94.38;87.43;;;;;;;;;;10115379;28;20051;-67
2022/09/09 18:47:51;;;;;;;93.97;87.57;;;;;;;;;;10151796;28;20447;-67
2022/09/09 18:52:48;;;;;;;95.65;89.20;;;;;;;;;;10153986;28;20130;-67
2022/09/09 18:57:44;;;;;;;95.32;88.82;;;;;;;;;;10136125;28;20284;-68
2022/09/09 19:02:40;;;;;;;95.28;88.70;;;;;;;;;;10112631;28;20049;-67
2022/09/09 19:07:40;;;;;;;92.22;85.82;;;;;;;;;;10127304;28;20046;-67
2022/09/09 19:12:38;;;;;;;94.63;88.20;;;;;;;;;;10113963;28;20050;-67
2022/09/09 19:17:35;;;;;;;92.80;86.18;;;;;;;;;;10152805;28;20050;-67
2022/09/09 19:22:31;;;;;;;91.05;84.55;;;;;;;;;;10153403;28;20057;-67
2022/09/09 19:27:28;;;;;;;94.05;87.45;;;;;;;;;;10152783;28;20046;-67
2022/09/09 19:32:24;;;;;;;92.57;86.07;;;;;;;;;;10155257;28;20054;-67
2022/09/09 19:37:41;;;;;;;90.55;84.30;;;;;;;;;;10157537;28;20070;-67
2022/09/09 19:42:39;;;;;;;92.45;85.90;;;;;;;;;;10121294;28;20046;-67
2022/09/09 19:47:35;;;;;;;88.68;82.43;;;;;;;;;;10143647;28;20046;-67
2022/09/09 19:52:32;;;;;;;92.97;86.63;;;;;;;;;;10120866;28;20131;-67
2022/09/09 19:57:29;;;;;;;90.35;84.05;;;;;;;;;;10155288;28;20048;-67
2022/09/09 20:02:27;;;;;;;86.05;80.13;;;;;;;;;;10160294;28;20039;-67
2022/09/09 20:07:23;;;;;;;90.05;83.55;;;;;;;;;;10159063;28;20054;-68
2022/09/09 20:12:20;;;;;;;97.10;90.65;;;;;;;;;;10159744;28;20137;-68
2022/09/09 20:17:16;;;;;;;92.78;86.38;;;;;;;;;;10124358;28;20524;-68
2022/09/09 20:22:13;;;;;;;97.95;90.93;;;;;;;;;;10120202;28;20039;-68
2022/09/09 20:27:09;;;;;;;98.55;91.85;;;;;;;;;;10151954;28;20047;-68
2022/09/09 20:32:05;;;;;;;94.88;88.28;;;;;;;;;;10158427;28;20050;-68
2022/09/09 20:37:02;;;;;;;99.45;92.68;;;;;;;;;;10158582;28;20050;-67
2022/09/09 20:41:58;;;;;;;94.95;87.95;;;;;;;;;;10132391;28;20506;-68
2022/09/09 20:46:59;;;;;;;95.97;89.18;;;;;;;;;;10149511;28;20050;-68
2022/09/09 20:51:55;;;;;;;102.53;95.25;;;;;;;;;;10123239;28;20046;-67
2022/09/09 20:56:52;;;;;;;98.50;91.80;;;;;;;;;;10147966;28;20456;-68
2022/09/09 21:01:49;;;;;;;96.55;89.88;;;;;;;;;;10158070;28;20701;-69
2022/09/09 21:06:46;;;;;;;94.93;88.45;;;;;;;;;;10145103;28;20479;-67
2022/09/09 21:11:42;;;;;;;94.88;87.95;;;;;;;;;;10118105;28;20053;-67
2022/09/09 21:16:38;;;;;;;93.10;86.35;;;;;;;;;;10143026;28;20054;-67
2022/09/09 21:21:35;;;;;;;92.38;86.07;;;;;;;;;;10157296;28;20053;-67
2022/09/09 21:26:31;;;;;;;93.20;86.95;;;;;;;;;;10155834;28;20120;-67
2022/09/09 21:31:28;;;;;;;92.72;86.22;;;;;;;;;;10156402;28;20050;-69
2022/09/09 21:36:27;;;;;;;95.10;88.30;;;;;;;;;;10150159;28;20096;-69
2022/09/09 21:41:23;;;;;;;95.70;89.10;;;;;;;;;;10154488;28;20646;-69
2022/09/09 21:46:20;;;;;;;94.45;87.75;;;;;;;;;;10156024;28;20043;-67
2022/09/09 21:51:17;;;;;;;97.82;91.13;;;;;;;;;;10134608;28;20055;-68
2022/09/09 21:56:14;;;;;;;98.10;91.30;;;;;;;;;;10140584;28;20042;-69
2022/09/09 22:01:12;;;;;;;92.88;86.43;;;;;;;;;;10155133;28;20081;-69
2022/09/09 22:06:10;;;;;;;87.63;80.95;;;;;;;;;;10154666;28;20097;-69
2022/09/09 22:11:15;;;;;;;84.88;78.88;;;;;;;;;;10155575;28;20657;-69
2022/09/09 22:16:12;;;;;;;88.22;82.13;;;;;;;;;;10151175;28;20051;-69
2022/09/09 22:21:13;;;;;;;88.07;81.65;;;;;;;;;;10113737;28;20092;-69
2022/09/09 22:26:09;;;;;;;92.85;86.25;;;;;;;;;;10128381;28;20065;-69
2022/09/09 22:31:06;;;;;;;90.20;83.55;;;;;;;;;;10114775;28;20556;-69
2022/09/09 22:36:02;;;;;;;89.50;83.32;;;;;;;;;;10152926;28;20044;-69
2022/09/09 22:41:01;;;;;;;89.90;83.40;;;;;;;;;;10154269;28;20042;-68
2022/09/09 22:45:58;;;;;;;88.43;82.05;;;;;;;;;;10153224;28;20062;-69
2022/09/09 22:50:59;;;;;;;94.88;88.03;;;;;;;;;;10154047;28;20547;-68
2022/09/09 22:55:58;;;;;;;97.43;90.57;;;;;;;;;;10153230;28;20041;-68
2022/09/09 23:00:58;;;;;;;92.88;86.32;;;;;;;;;;10147521;28;20055;-68
2022/09/09 23:05:58;;;;;;;95.90;89.22;;;;;;;;;;10136323;28;20393;-68
2022/09/09 23:10:54;;;;;;;93.13;86.47;;;;;;;;;;10153331;28;20046;-68
2022/09/09 23:15:51;;;;;;;97.38;90.57;;;;;;;;;;10151753;28;20042;-68
2022/09/09 23:20:56;;;;;;;97.45;90.72;;;;;;;;;;10114103;28;20046;-68
2022/09/09 23:25:52;;;;;;;96.95;89.85;;;;;;;;;;10135251;28;20054;-68
2022/09/09 23:30:49;;;;;;;91.25;85.00;;;;;;;;;;10152917;28;20157;-69
2022/09/09 23:35:45;;;;;;;90.40;83.80;;;;;;;;;;10152549;28;20130;-68
2022/09/09 23:40:44;;;;;;;87.85;81.60;;;;;;;;;;10152856;28;20042;-69
2022/09/09 23:45:40;;;;;;;92.28;86.07;;;;;;;;;;10146779;28;20042;-68
2022/09/09 23:50:37;;;;;;;95.65;89.10;;;;;;;;;;10153524;28;20061;-68
2022/09/09 23:55:34;;;;;;;94.78;88.05;;;;;;;;;;10139478;28;20046;-68
